createdAt,value
2023-06-07T00:04:47.505Z,101641.25
2023-06-07T00:09:52.009Z,101645.13
2023-06-07T00:14:56.099Z,101657.94
2023-06-07T00:19:58.740Z,101659.31
2023-06-07T00:25:02.876Z,101659.09
2023-06-07T00:30:06.565Z,101661.47
2023-06-07T00:35:13.556Z,101663.00
2023-06-07T00:40:17.921Z,101566.03
2023-06-07T00:45:20.620Z,101657.78
2023-06-07T00:50:23.653Z,101659.44
2023-06-07T00:55:28.298Z,101653.59
2023-06-07T01:00:31.572Z,101657.00
2023-06-07T01:05:34.596Z,101624.06
2023-06-07T01:10:41.352Z,101657.50
2023-06-07T01:15:46.172Z,101438.88
2023-06-07T01:20:55.275Z,101575.03
2023-06-07T01:26:01.717Z,101658.41
2023-06-07T01:31:07.925Z,101634.00
2023-06-07T01:36:12.774Z,101638.88
2023-06-07T01:41:20.475Z,101621.88
2023-06-07T01:46:23.365Z,101647.88
2023-06-07T01:51:26.489Z,101574.34
2023-06-07T01:56:45.118Z,101642.03
2023-06-07T02:01:56.121Z,101645.84
2023-06-07T02:07:06.920Z,101647.53
2023-06-07T02:12:14.652Z,101654.22
2023-06-07T02:17:17.606Z,101504.00
2023-06-07T02:22:21.477Z,101645.69
2023-06-07T02:27:25.609Z,101645.22
2023-06-07T02:32:30.398Z,101605.31
2023-06-07T02:37:35.421Z,101631.47
2023-06-07T02:42:39.504Z,101594.88
2023-06-07T02:47:42.467Z,101445.41
2023-06-07T02:52:47.161Z,101627.59
2023-06-07T02:57:51.720Z,101620.00
2023-06-07T03:02:56.773Z,101625.97
2023-06-07T03:08:01.127Z,101583.19
2023-06-07T03:13:06.568Z,101603.34
2023-06-07T03:18:16.475Z,101557.91
2023-06-07T03:23:24.147Z,101551.69
2023-06-07T03:28:28.554Z,101643.84
2023-06-07T03:33:31.457Z,101498.53
2023-06-07T03:38:35.691Z,101408.63
2023-06-07T03:43:40.536Z,101511.66
2023-06-07T03:48:43.715Z,101644.78
2023-06-07T03:53:46.685Z,101642.47
2023-06-07T03:58:51.420Z,101413.97
2023-06-07T04:03:58.159Z,101642.63
2023-06-07T04:09:04.786Z,101567.94
2023-06-07T04:14:09.033Z,101595.41
2023-06-07T04:19:32.765Z,101324.88
2023-06-07T04:24:56.011Z,101655.47
2023-06-07T04:30:20.499Z,101657.53
2023-06-07T04:35:46.152Z,101651.72
2023-06-07T04:41:14.887Z,101658.28
2023-06-07T04:46:45.969Z,101662.88
2023-06-07T04:52:15.787Z,101626.91
2023-06-07T04:57:25.063Z,101582.84
2023-06-07T05:02:33.052Z,101513.13
2023-06-07T05:07:38.969Z,101652.16
2023-06-07T05:12:46.336Z,101663.22
2023-06-07T05:17:52.796Z,101671.72
2023-06-07T05:22:55.674Z,101673.81
2023-06-07T05:28:11.521Z,101677.06
2023-06-07T05:33:48.613Z,101359.72
2023-06-07T05:39:04.613Z,101685.59
2023-06-07T05:44:10.231Z,101619.97
2023-06-07T05:49:14.659Z,101676.03
2023-06-07T05:54:19.500Z,101661.31
2023-06-07T05:59:22.311Z,101662.16
2023-06-07T06:04:26.355Z,101674.25
2023-06-07T06:09:29.586Z,101687.63
2023-06-07T06:14:32.254Z,101689.06
2023-06-07T06:19:36.347Z,101645.41
2023-06-07T06:24:38.984Z,101698.44
2023-06-07T06:29:43.440Z,101706.97
2023-06-07T06:34:47.854Z,101698.84
2023-06-07T06:39:52.176Z,101688.94
2023-06-07T06:44:54.984Z,101678.84
2023-06-07T06:50:01.082Z,101727.34
2023-06-07T06:55:03.981Z,101725.66
2023-06-07T07:00:14.814Z,101730.78
2023-06-07T07:05:18.800Z,101743.81
2023-06-07T07:10:21.962Z,101755.38
2023-06-07T07:15:24.802Z,101751.50
2023-06-07T07:20:29.192Z,101751.31
2023-06-07T07:25:32.336Z,101756.63
2023-06-07T07:30:35.056Z,101758.44
2023-06-07T07:35:39.087Z,101761.63
2023-06-07T07:40:41.770Z,101729.88
2023-06-07T07:45:44.486Z,101722.09
2023-06-07T07:50:48.588Z,101770.66
2023-06-07T07:55:51.583Z,101767.66
2023-06-07T08:00:54.442Z,101772.03
2023-06-07T08:05:58.433Z,101780.06
2023-06-07T08:11:01.441Z,101765.09
2023-06-07T08:16:04.201Z,101776.06
2023-06-07T08:21:08.253Z,101770.47
2023-06-07T08:26:10.914Z,101759.38
2023-06-07T08:31:13.632Z,101684.03
2023-06-07T08:36:18.695Z,101769.38
2023-06-07T08:41:22.326Z,101772.47
2023-06-07T08:46:25.675Z,101771.59
2023-06-07T08:51:29.948Z,101784.97
2023-06-07T08:56:33.459Z,101786.25
2023-06-07T09:01:38.454Z,101774.31
2023-06-07T09:06:46.800Z,101684.88
2023-06-07T09:11:53.512Z,101695.72
2023-06-07T09:16:56.937Z,101747.69
2023-06-07T09:22:01.173Z,101728.97
2023-06-07T09:27:05.456Z,101731.78
2023-06-07T09:32:21.717Z,101773.13
2023-06-07T09:37:42.486Z,101780.72
2023-06-07T09:42:46.000Z,101789.97
2023-06-07T09:47:48.941Z,101753.59
2023-06-07T09:52:59.360Z,101778.78
2023-06-07T09:58:02.153Z,101713.47
2023-06-07T10:03:08.114Z,101783.97
2023-06-07T10:08:19.016Z,101798.69
2023-06-07T10:13:25.939Z,101758.56
2023-06-07T10:18:29.901Z,101768.31
2023-06-07T10:23:40.929Z,101787.03
2023-06-07T10:28:51.408Z,101781.84
2023-06-07T10:33:56.199Z,101770.25
2023-06-07T10:39:00.815Z,101770.25
2023-06-07T10:44:05.631Z,101766.13
2023-06-07T10:49:47.847Z,101638.19
2023-06-07T10:54:52.827Z,101751.97
2023-06-07T11:00:26.206Z,101729.31
2023-06-07T11:06:08.421Z,101702.97
2023-06-07T11:11:54.757Z,101740.78
2023-06-07T11:16:58.951Z,101730.16
2023-06-07T11:22:08.868Z,101714.63
2023-06-07T11:27:15.369Z,101731.75
2023-06-07T11:32:21.638Z,101733.63
2023-06-07T11:37:25.458Z,101740.00
2023-06-07T11:42:28.816Z,101735.53
2023-06-07T11:47:33.140Z,101723.44
2023-06-07T11:52:41.196Z,101721.63
2023-06-07T11:57:48.782Z,101721.81
2023-06-07T12:02:54.211Z,101715.38
2023-06-07T12:07:59.692Z,101680.47
2023-06-07T12:13:11.206Z,101692.69
2023-06-07T12:18:17.195Z,101687.84
2023-06-07T12:23:25.311Z,101692.94
2023-06-07T12:28:32.656Z,101675.56
2023-06-07T12:33:36.837Z,101685.50
2023-06-07T12:38:39.577Z,101683.31
2023-06-07T12:43:47.003Z,101649.25
2023-06-07T12:48:51.216Z,101624.38
2023-06-07T12:53:54.702Z,101630.41
2023-06-07T12:58:57.999Z,101640.78
2023-06-07T13:04:09.005Z,101636.09
2023-06-07T13:09:12.330Z,101625.66
2023-06-07T13:14:18.042Z,101657.38
2023-06-07T13:19:22.942Z,101614.94
2023-06-07T13:24:27.986Z,101653.16
2023-06-07T13:29:30.736Z,101633.81
2023-06-07T13:34:34.822Z,101639.84
2023-06-07T13:39:37.534Z,101622.47
2023-06-07T13:44:41.187Z,101634.63
2023-06-07T13:49:57.363Z,101633.22
2023-06-07T13:55:00.632Z,101628.69
2023-06-07T14:00:11.902Z,101620.84
2023-06-07T14:05:20.207Z,101502.28
2023-06-07T14:10:23.668Z,101539.56
2023-06-07T14:15:32.006Z,101503.38
2023-06-07T14:20:36.230Z,101588.69
2023-06-07T14:25:40.991Z,101552.00
2023-06-07T14:30:46.409Z,101565.88
2023-06-07T14:35:51.240Z,101583.63
2023-06-07T14:40:56.008Z,101466.53
2023-06-07T14:46:06.092Z,101532.59
2023-06-07T14:51:10.127Z,101570.19
2023-06-07T14:56:13.887Z,101571.63
2023-06-07T15:01:33.767Z,101534.78
2023-06-07T15:06:38.173Z,101570.16
2023-06-07T15:11:57.317Z,101552.75
2023-06-07T15:17:11.987Z,101497.13
2023-06-07T15:22:16.269Z,101511.53
2023-06-07T15:27:20.137Z,101514.69
2023-06-07T15:32:36.369Z,101376.69
2023-06-07T15:37:48.332Z,101526.00
2023-06-07T15:42:51.585Z,101522.22
2023-06-07T15:48:01.539Z,101513.94
2023-06-07T15:53:10.195Z,101503.63
2023-06-07T15:58:14.263Z,101504.28
2023-06-07T16:03:54.201Z,101286.75
2023-06-07T16:09:04.306Z,101497.13
2023-06-07T16:14:11.112Z,101488.31
2023-06-07T16:19:13.867Z,101490.16
2023-06-07T16:24:18.280Z,101479.19
2023-06-07T16:29:21.137Z,101475.78
2023-06-07T16:34:24.066Z,101441.31
2023-06-07T16:39:28.120Z,101483.44
2023-06-07T16:44:54.232Z,101264.28
2023-06-07T16:49:57.241Z,101437.34
2023-06-07T16:55:01.299Z,101489.09
2023-06-07T17:00:05.092Z,101356.53
2023-06-07T17:05:11.321Z,101511.00
2023-06-07T17:10:15.506Z,101470.91
2023-06-07T17:15:18.411Z,101460.50
2023-06-07T17:20:21.271Z,101485.66
2023-06-07T17:25:26.505Z,101494.63
2023-06-07T17:30:30.309Z,101407.50
2023-06-07T17:35:33.454Z,101485.91
2023-06-07T17:40:38.291Z,101483.69
2023-06-07T17:45:41.253Z,101480.88
2023-06-07T17:50:47.401Z,101486.94
2023-06-07T17:55:54.643Z,101461.66
2023-06-07T18:00:57.819Z,101481.69
2023-06-07T18:06:01.145Z,101395.03
2023-06-07T18:11:08.133Z,101410.66
2023-06-07T18:16:11.206Z,101403.75
2023-06-07T18:21:14.716Z,101463.06
2023-06-07T18:26:18.798Z,101417.22
2023-06-07T18:31:21.879Z,101482.16
2023-06-07T18:36:33.442Z,101438.22
2023-06-07T18:41:39.465Z,101361.28
2023-06-07T18:46:42.959Z,101303.31
2023-06-07T18:51:45.906Z,101480.63
2023-06-07T18:57:14.671Z,101444.22
2023-06-07T19:02:18.804Z,101478.25
2023-06-07T19:07:22.673Z,101272.88
2023-06-07T19:12:48.571Z,101273.59
2023-06-07T19:23:37.340Z,101213.88
2023-06-07T19:28:43.303Z,101493.81
2023-06-07T19:33:46.261Z,101488.16
2023-06-07T19:38:49.562Z,101506.09
2023-06-07T19:43:54.318Z,101457.19
2023-06-07T19:48:59.119Z,101482.34
2023-06-07T19:54:01.864Z,101495.66
2023-06-07T19:59:07.653Z,101438.38
2023-06-07T20:04:12.173Z,101499.31
2023-06-07T20:09:15.113Z,101494.31
2023-06-07T20:14:21.546Z,101495.47
2023-06-07T20:19:27.572Z,101426.13
2023-06-07T20:24:36.432Z,101308.88
2023-06-07T20:29:43.188Z,101497.28
2023-06-07T20:34:48.660Z,101279.06
2023-06-07T20:40:17.154Z,101501.09
2023-06-07T20:45:35.604Z,101484.63
2023-06-07T20:50:40.456Z,101142.53
2023-06-07T21:02:39.161Z,101138.56
2023-06-07T21:08:56.432Z,101511.31
2023-06-07T21:21:13.151Z,101511.59
2023-06-07T21:27:03.689Z,101212.75
2023-06-07T21:39:22.297Z,101527.50
2023-06-07T21:44:26.314Z,101526.22
2023-06-07T21:49:29.745Z,101511.53
2023-06-07T21:54:32.594Z,101520.03
2023-06-07T21:59:37.060Z,101501.91
2023-06-07T22:04:41.037Z,101512.94
2023-06-07T22:09:45.619Z,101516.88
2023-06-07T22:14:49.736Z,101515.75
2023-06-07T22:19:52.432Z,101502.19
2023-06-07T22:24:55.054Z,101521.09
2023-06-07T22:29:59.616Z,101519.09
2023-06-07T22:35:05.809Z,101519.06
2023-06-07T22:40:10.505Z,101510.13
2023-06-07T22:45:14.787Z,101515.59
2023-06-07T22:50:21.647Z,101513.31
2023-06-07T22:55:24.252Z,101501.72
2023-06-07T23:00:28.277Z,101510.03
2023-06-07T23:05:30.985Z,101514.81
2023-06-07T23:10:37.352Z,101512.72
2023-06-07T23:15:43.748Z,101515.50
2023-06-07T23:20:49.433Z,101513.06
2023-06-07T23:25:52.253Z,101504.41
2023-06-07T23:30:56.222Z,101514.41
2023-06-07T23:35:58.830Z,101514.47
2023-06-07T23:41:01.436Z,101507.94
2023-06-07T23:46:06.116Z,101511.88
2023-06-07T23:51:08.882Z,101504.81
2023-06-07T23:56:11.454Z,101506.56
